sensor_id;sensor_type;location;lat;lon;timestamp;pressure;altitude;pressure_sealevel;temperature;humidity
39177;BME280;24904;52.208;21.192;2023-02-11T00:02:36;101837.91;;;3.23;73.79
39177;BME280;24904;52.208;21.192;2023-02-11T00:07:41;101836.21;;;3.20;73.47
39177;BME280;24904;52.208;21.192;2023-02-11T00:12:46;101832.25;;;3.20;73.57
39177;BME280;24904;52.208;21.192;2023-02-11T00:17:51;101833.09;;;3.18;73.65
39177;BME280;24904;52.208;21.192;2023-02-11T00:22:56;101816.49;;;3.13;73.38
39177;BME280;24904;52.208;21.192;2023-02-11T00:28:01;101808.14;;;3.13;73.34
39177;BME280;24904;52.208;21.192;2023-02-11T00:33:06;101799.98;;;3.13;73.46
39177;BME280;24904;52.208;21.192;2023-02-11T00:38:11;101792.93;;;3.13;73.41
39177;BME280;24904;52.208;21.192;2023-02-11T00:43:15;101789.19;;;3.13;73.15
39177;BME280;24904;52.208;21.192;2023-02-11T00:48:20;101783.08;;;3.12;72.99
39177;BME280;24904;52.208;21.192;2023-02-11T00:53:26;101768.09;;;3.13;73.04
39177;BME280;24904;52.208;21.192;2023-02-11T00:58:31;101746.02;;;3.11;72.66
39177;BME280;24904;52.208;21.192;2023-02-11T01:03:36;101725.06;;;3.12;72.67
39177;BME280;24904;52.208;21.192;2023-02-11T01:08:41;101715.58;;;3.09;72.54
39177;BME280;24904;52.208;21.192;2023-02-11T01:13:46;101710.45;;;3.07;72.79
39177;BME280;24904;52.208;21.192;2023-02-11T01:18:52;101688.91;;;3.07;72.49
39177;BME280;24904;52.208;21.192;2023-02-11T01:23:57;101677.02;;;3.07;72.54
39177;BME280;24904;52.208;21.192;2023-02-11T01:29:02;101658.48;;;3.11;72.87
39177;BME280;24904;52.208;21.192;2023-02-11T01:34:07;101640.20;;;3.10;72.64
39177;BME280;24904;52.208;21.192;2023-02-11T01:39:13;101624.01;;;3.06;72.39
39177;BME280;24904;52.208;21.192;2023-02-11T01:44:30;101624.00;;;3.04;72.10
39177;BME280;24904;52.208;21.192;2023-02-11T01:49:37;101621.85;;;3.03;71.91
39177;BME280;24904;52.208;21.192;2023-02-11T01:54:45;101632.98;;;3.05;72.32
39177;BME280;24904;52.208;21.192;2023-02-11T02:00:15;101642.58;;;3.06;72.16
39177;BME280;24904;52.208;21.192;2023-02-11T02:05:30;101618.33;;;3.03;71.83
39177;BME280;24904;52.208;21.192;2023-02-11T02:10:39;101595.92;;;3.05;71.95
39177;BME280;24904;52.208;21.192;2023-02-11T02:15:48;101587.80;;;3.06;71.83
39177;BME280;24904;52.208;21.192;2023-02-11T02:26:54;101548.73;;;3.04;71.56
39177;BME280;24904;52.208;21.192;2023-02-11T02:32:23;101541.52;;;3.10;71.91
39177;BME280;24904;52.208;21.192;2023-02-11T02:37:35;101539.25;;;3.14;71.47
39177;BME280;24904;52.208;21.192;2023-02-11T02:42:42;101532.20;;;3.16;71.50
39177;BME280;24904;52.208;21.192;2023-02-11T02:47:48;101529.02;;;3.15;71.45
39177;BME280;24904;52.208;21.192;2023-02-11T02:52:59;101507.00;;;3.11;71.07
39177;BME280;24904;52.208;21.192;2023-02-11T02:58:47;101510.17;;;3.10;71.48
39177;BME280;24904;52.208;21.192;2023-02-11T03:04:01;101519.05;;;3.10;71.50
39177;BME280;24904;52.208;21.192;2023-02-11T03:09:13;101508.15;;;3.11;71.30
39177;BME280;24904;52.208;21.192;2023-02-11T03:14:21;101502.58;;;3.10;71.10
39177;BME280;24904;52.208;21.192;2023-02-11T03:19:29;101495.61;;;3.10;71.29
39177;BME280;24904;52.208;21.192;2023-02-11T03:24:38;101486.79;;;3.08;70.96
39177;BME280;24904;52.208;21.192;2023-02-11T03:29:50;101473.30;;;3.08;71.14
39177;BME280;24904;52.208;21.192;2023-02-11T03:34:59;101460.61;;;3.06;70.95
39177;BME280;24904;52.208;21.192;2023-02-11T03:40:09;101453.42;;;3.07;71.12
39177;BME280;24904;52.208;21.192;2023-02-11T03:45:17;101449.25;;;3.08;70.88
39177;BME280;24904;52.208;21.192;2023-02-11T03:50:24;101438.73;;;3.10;70.81
39177;BME280;24904;52.208;21.192;2023-02-11T03:55:34;101428.14;;;3.11;70.88
39177;BME280;24904;52.208;21.192;2023-02-11T04:00:42;101414.55;;;3.09;70.32
39177;BME280;24904;52.208;21.192;2023-02-11T04:05:47;101406.05;;;3.07;70.36
39177;BME280;24904;52.208;21.192;2023-02-11T04:10:52;101388.75;;;3.07;70.37
39177;BME280;24904;52.208;21.192;2023-02-11T04:15:57;101373.82;;;3.08;70.11
39177;BME280;24904;52.208;21.192;2023-02-11T04:21:02;101354.56;;;3.07;69.86
39177;BME280;24904;52.208;21.192;2023-02-11T04:26:07;101355.84;;;3.01;69.92
39177;BME280;24904;52.208;21.192;2023-02-11T04:31:12;101356.42;;;3.01;70.06
39177;BME280;24904;52.208;21.192;2023-02-11T04:36:17;101352.86;;;3.03;69.54
39177;BME280;24904;52.208;21.192;2023-02-11T04:41:22;101347.88;;;3.05;69.69
39177;BME280;24904;52.208;21.192;2023-02-11T04:46:26;101335.48;;;3.08;69.40
39177;BME280;24904;52.208;21.192;2023-02-11T04:51:31;101319.66;;;3.05;69.19
39177;BME280;24904;52.208;21.192;2023-02-11T04:56:37;101308.20;;;3.08;69.16
39177;BME280;24904;52.208;21.192;2023-02-11T05:01:42;101286.71;;;3.05;68.94
39177;BME280;24904;52.208;21.192;2023-02-11T05:06:47;101269.30;;;3.03;68.96
39177;BME280;24904;52.208;21.192;2023-02-11T05:11:52;101269.06;;;2.99;68.82
39177;BME280;24904;52.208;21.192;2023-02-11T05:16:57;101275.95;;;2.93;68.77
39177;BME280;24904;52.208;21.192;2023-02-11T05:22:02;101260.27;;;2.88;68.67
39177;BME280;24904;52.208;21.192;2023-02-11T05:27:07;101241.52;;;2.90;68.79
39177;BME280;24904;52.208;21.192;2023-02-11T05:32:12;101230.89;;;2.90;68.78
39177;BME280;24904;52.208;21.192;2023-02-11T05:37:17;101229.37;;;2.94;68.80
39177;BME280;24904;52.208;21.192;2023-02-11T05:42:22;101222.55;;;2.97;68.68
39177;BME280;24904;52.208;21.192;2023-02-11T05:47:27;101226.93;;;2.97;68.59
39177;BME280;24904;52.208;21.192;2023-02-11T05:58:43;101208.56;;;2.91;68.61
39177;BME280;24904;52.208;21.192;2023-02-11T06:03:48;101201.84;;;2.93;68.61
39177;BME280;24904;52.208;21.192;2023-02-11T06:08:53;101196.31;;;2.95;68.50
39177;BME280;24904;52.208;21.192;2023-02-11T06:13:59;101191.90;;;2.94;68.31
39177;BME280;24904;52.208;21.192;2023-02-11T06:19:04;101192.39;;;2.96;68.35
39177;BME280;24904;52.208;21.192;2023-02-11T06:24:09;101191.52;;;2.99;68.16
39177;BME280;24904;52.208;21.192;2023-02-11T06:29:14;101185.83;;;2.98;68.16
39177;BME280;24904;52.208;21.192;2023-02-11T06:34:19;101172.86;;;3.01;68.37
39177;BME280;24904;52.208;21.192;2023-02-11T06:39:24;101166.95;;;3.01;68.18
39177;BME280;24904;52.208;21.192;2023-02-11T06:44:29;101147.27;;;3.03;68.09
39177;BME280;24904;52.208;21.192;2023-02-11T06:49:34;101140.27;;;3.05;68.06
39177;BME280;24904;52.208;21.192;2023-02-11T06:54:39;101141.23;;;3.01;67.85
39177;BME280;24904;52.208;21.192;2023-02-11T06:59:44;101141.43;;;3.02;67.95
39177;BME280;24904;52.208;21.192;2023-02-11T07:04:49;101132.60;;;3.04;67.83
39177;BME280;24904;52.208;21.192;2023-02-11T07:09:54;101119.21;;;3.01;67.99
39177;BME280;24904;52.208;21.192;2023-02-11T07:14:59;101123.27;;;3.08;67.86
39177;BME280;24904;52.208;21.192;2023-02-11T07:20:05;101134.11;;;3.09;68.17
39177;BME280;24904;52.208;21.192;2023-02-11T07:25:11;101129.79;;;3.13;68.34
39177;BME280;24904;52.208;21.192;2023-02-11T07:30:17;101118.01;;;3.13;67.96
39177;BME280;24904;52.208;21.192;2023-02-11T07:35:22;101127.75;;;3.11;67.99
39177;BME280;24904;52.208;21.192;2023-02-11T07:40:27;101130.41;;;3.06;68.30
39177;BME280;24904;52.208;21.192;2023-02-11T07:45:34;101124.39;;;3.08;68.82
39177;BME280;24904;52.208;21.192;2023-02-11T07:50:41;101109.80;;;3.02;68.91
39177;BME280;24904;52.208;21.192;2023-02-11T07:55:46;101106.80;;;2.95;69.31
39177;BME280;24904;52.208;21.192;2023-02-11T08:00:51;101106.30;;;2.93;69.62
39177;BME280;24904;52.208;21.192;2023-02-11T08:05:56;101101.40;;;2.85;70.14
39177;BME280;24904;52.208;21.192;2023-02-11T08:11:06;101103.95;;;2.82;70.37
39177;BME280;24904;52.208;21.192;2023-02-11T08:16:18;101095.71;;;2.79;70.89
39177;BME280;24904;52.208;21.192;2023-02-11T08:21:24;101087.89;;;2.79;71.34
39177;BME280;24904;52.208;21.192;2023-02-11T08:26:31;101085.86;;;2.72;71.51
39177;BME280;24904;52.208;21.192;2023-02-11T08:31:38;101085.63;;;2.68;72.11
39177;BME280;24904;52.208;21.192;2023-02-11T08:36:45;101078.20;;;2.67;72.65
39177;BME280;24904;52.208;21.192;2023-02-11T08:41:53;101063.48;;;2.66;72.94
39177;BME280;24904;52.208;21.192;2023-02-11T08:46:59;101071.11;;;2.64;73.57
39177;BME280;24904;52.208;21.192;2023-02-11T08:52:04;101062.27;;;2.62;73.95
39177;BME280;24904;52.208;21.192;2023-02-11T08:57:09;101044.28;;;2.63;74.27
39177;BME280;24904;52.208;21.192;2023-02-11T09:02:14;101032.52;;;2.71;74.43
39177;BME280;24904;52.208;21.192;2023-02-11T09:07:19;101013.46;;;2.72;74.25
39177;BME280;24904;52.208;21.192;2023-02-11T09:12:24;101005.55;;;2.73;74.85
39177;BME280;24904;52.208;21.192;2023-02-11T09:17:29;101002.94;;;2.74;74.96
39177;BME280;24904;52.208;21.192;2023-02-11T09:22:34;100987.59;;;2.80;75.18
39177;BME280;24904;52.208;21.192;2023-02-11T09:27:39;100987.75;;;2.80;74.95
39177;BME280;24904;52.208;21.192;2023-02-11T09:32:44;100998.06;;;2.83;75.14
39177;BME280;24904;52.208;21.192;2023-02-11T09:37:49;101007.88;;;2.83;75.34
39177;BME280;24904;52.208;21.192;2023-02-11T09:42:58;101008.61;;;2.77;75.56
39177;BME280;24904;52.208;21.192;2023-02-11T09:48:11;101021.69;;;2.81;75.57
39177;BME280;24904;52.208;21.192;2023-02-11T09:53:24;101026.92;;;2.85;75.83
39177;BME280;24904;52.208;21.192;2023-02-11T09:58:33;101034.16;;;2.81;76.09
39177;BME280;24904;52.208;21.192;2023-02-11T10:09:29;100986.56;;;2.81;76.77
39177;BME280;24904;52.208;21.192;2023-02-11T10:14:52;100972.55;;;2.88;77.25
39177;BME280;24904;52.208;21.192;2023-02-11T10:20:09;100987.63;;;2.88;77.60
39177;BME280;24904;52.208;21.192;2023-02-11T10:25:23;100986.89;;;2.85;77.94
39177;BME280;24904;52.208;21.192;2023-02-11T10:30:31;100969.29;;;2.82;78.14
39177;BME280;24904;52.208;21.192;2023-02-11T10:35:38;100953.15;;;2.83;78.52
39177;BME280;24904;52.208;21.192;2023-02-11T10:40:45;100942.39;;;2.88;78.91
39177;BME280;24904;52.208;21.192;2023-02-11T10:45:51;100930.59;;;2.95;78.94
39177;BME280;24904;52.208;21.192;2023-02-11T10:51:11;100934.70;;;2.95;78.85
39177;BME280;24904;52.208;21.192;2023-02-11T10:56:24;100927.66;;;2.95;78.90
39177;BME280;24904;52.208;21.192;2023-02-11T11:01:47;100900.41;;;2.96;79.09
39177;BME280;24904;52.208;21.192;2023-02-11T11:06:53;100886.86;;;2.98;79.20
39177;BME280;24904;52.208;21.192;2023-02-11T11:11:58;100900.14;;;2.96;79.29
39177;BME280;24904;52.208;21.192;2023-02-11T11:17:10;100894.39;;;2.97;79.59
39177;BME280;24904;52.208;21.192;2023-02-11T11:22:22;100904.00;;;2.91;79.96
39177;BME280;24904;52.208;21.192;2023-02-11T11:27:27;100927.55;;;2.83;80.15
39177;BME280;24904;52.208;21.192;2023-02-11T11:32:34;100941.16;;;2.84;80.49
39177;BME280;24904;52.208;21.192;2023-02-11T11:37:39;100937.13;;;2.81;80.86
39177;BME280;24904;52.208;21.192;2023-02-11T11:42:46;100929.02;;;2.78;80.97
39177;BME280;24904;52.208;21.192;2023-02-11T11:48:11;100920.02;;;2.80;81.32
39177;BME280;24904;52.208;21.192;2023-02-11T11:53:22;100919.42;;;2.83;81.57
39177;BME280;24904;52.208;21.192;2023-02-11T11:58:31;100897.64;;;2.84;81.56
39177;BME280;24904;52.208;21.192;2023-02-11T12:04:04;100875.08;;;2.84;81.57
39177;BME280;24904;52.208;21.192;2023-02-11T12:09:22;100874.91;;;2.91;81.77
39177;BME280;24904;52.208;21.192;2023-02-11T12:14:36;100874.00;;;2.98;81.90
39177;BME280;24904;52.208;21.192;2023-02-11T12:25:36;100873.41;;;3.07;82.06
39177;BME280;24904;52.208;21.192;2023-02-11T12:31:10;100870.94;;;3.10;82.35
39177;BME280;24904;52.208;21.192;2023-02-11T12:36:29;100874.32;;;3.14;82.54
39177;BME280;24904;52.208;21.192;2023-02-11T12:41:50;100870.48;;;3.13;82.27
39177;BME280;24904;52.208;21.192;2023-02-11T12:47:23;100873.40;;;3.18;82.58
39177;BME280;24904;52.208;21.192;2023-02-11T12:52:46;100863.83;;;3.22;82.50
39177;BME280;24904;52.208;21.192;2023-02-11T12:57:55;100844.36;;;3.26;82.34
39177;BME280;24904;52.208;21.192;2023-02-11T13:03:06;100847.55;;;3.28;82.70
39177;BME280;24904;52.208;21.192;2023-02-11T13:08:18;100841.68;;;3.31;82.62
39177;BME280;24904;52.208;21.192;2023-02-11T13:13:28;100845.48;;;3.34;83.07
39177;BME280;24904;52.208;21.192;2023-02-11T13:18:38;100851.23;;;3.36;83.22
39177;BME280;24904;52.208;21.192;2023-02-11T13:24:01;100843.89;;;3.39;82.93
39177;BME280;24904;52.208;21.192;2023-02-11T13:29:26;100834.73;;;3.46;82.79
39177;BME280;24904;52.208;21.192;2023-02-11T13:34:56;100834.82;;;3.44;82.99
39177;BME280;24904;52.208;21.192;2023-02-11T13:40:04;100836.57;;;3.46;82.82
39177;BME280;24904;52.208;21.192;2023-02-11T13:45:21;100833.98;;;3.45;83.06
39177;BME280;24904;52.208;21.192;2023-02-11T13:50:35;100828.77;;;3.46;83.59
39177;BME280;24904;52.208;21.192;2023-02-11T13:55:43;100832.00;;;3.46;83.66
39177;BME280;24904;52.208;21.192;2023-02-11T14:00:50;100834.69;;;3.46;83.67
39177;BME280;24904;52.208;21.192;2023-02-11T14:06:27;100834.94;;;3.47;84.09
39177;BME280;24904;52.208;21.192;2023-02-11T14:12:32;100842.92;;;3.47;84.39
39177;BME280;24904;52.208;21.192;2023-02-11T14:17:37;100842.38;;;3.49;84.42
39177;BME280;24904;52.208;21.192;2023-02-11T14:22:47;100833.63;;;3.51;84.52
39177;BME280;24904;52.208;21.192;2023-02-11T14:27:58;100842.16;;;3.53;84.64
39177;BME280;24904;52.208;21.192;2023-02-11T14:39:00;100857.39;;;3.56;84.45
39177;BME280;24904;52.208;21.192;2023-02-11T14:44:15;100857.45;;;3.61;84.40
39177;BME280;24904;52.208;21.192;2023-02-11T14:49:26;100873.39;;;3.62;84.96
39177;BME280;24904;52.208;21.192;2023-02-11T14:54:33;100875.17;;;3.64;84.33
39177;BME280;24904;52.208;21.192;2023-02-11T14:59:39;100875.27;;;3.70;84.21
39177;BME280;24904;52.208;21.192;2023-02-11T15:04:44;100878.34;;;3.73;84.86
39177;BME280;24904;52.208;21.192;2023-02-11T15:09:50;100879.20;;;3.76;84.57
39177;BME280;24904;52.208;21.192;2023-02-11T15:14:59;100883.06;;;3.78;84.48
39177;BME280;24904;52.208;21.192;2023-02-11T15:20:11;100871.91;;;3.73;85.19
39177;BME280;24904;52.208;21.192;2023-02-11T15:25:19;100875.69;;;3.72;85.09
39177;BME280;24904;52.208;21.192;2023-02-11T15:30:30;100887.19;;;3.73;85.00
39177;BME280;24904;52.208;21.192;2023-02-11T15:35:39;100898.05;;;3.74;85.38
39177;BME280;24904;52.208;21.192;2023-02-11T15:40:53;100902.63;;;3.74;85.55
39177;BME280;24904;52.208;21.192;2023-02-11T15:46:00;100909.75;;;3.77;85.19
39177;BME280;24904;52.208;21.192;2023-02-11T15:51:11;100910.59;;;3.80;85.05
39177;BME280;24904;52.208;21.192;2023-02-11T15:56:25;100909.52;;;3.87;85.10
39177;BME280;24904;52.208;21.192;2023-02-11T16:01:34;100911.77;;;3.93;84.62
39177;BME280;24904;52.208;21.192;2023-02-11T16:06:43;100919.52;;;3.97;84.69
39177;BME280;24904;52.208;21.192;2023-02-11T16:11:57;100926.96;;;3.99;84.67
39177;BME280;24904;52.208;21.192;2023-02-11T16:17:06;100934.76;;;3.98;84.79
39177;BME280;24904;52.208;21.192;2023-02-11T16:22:18;100937.98;;;3.99;84.52
39177;BME280;24904;52.208;21.192;2023-02-11T16:27:25;100940.32;;;4.02;84.93
39177;BME280;24904;52.208;21.192;2023-02-11T16:32:32;100946.02;;;4.08;85.08
39177;BME280;24904;52.208;21.192;2023-02-11T16:37:39;100957.03;;;4.10;84.84
39177;BME280;24904;52.208;21.192;2023-02-11T16:42:44;100960.00;;;4.13;85.36
39177;BME280;24904;52.208;21.192;2023-02-11T16:47:49;100963.13;;;4.15;85.06
39177;BME280;24904;52.208;21.192;2023-02-11T16:52:54;100960.83;;;4.19;85.16
39177;BME280;24904;52.208;21.192;2023-02-11T16:57:59;100972.48;;;4.23;85.09
39177;BME280;24904;52.208;21.192;2023-02-11T17:03:06;100982.79;;;4.29;84.87
39177;BME280;24904;52.208;21.192;2023-02-11T17:08:12;100981.45;;;4.33;85.00
39177;BME280;24904;52.208;21.192;2023-02-11T17:13:17;100986.93;;;4.41;84.99
39177;BME280;24904;52.208;21.192;2023-02-11T17:18:22;100999.42;;;4.48;85.02
39177;BME280;24904;52.208;21.192;2023-02-11T17:23:27;101009.52;;;4.51;84.84
39177;BME280;24904;52.208;21.192;2023-02-11T17:28:32;101022.80;;;4.56;84.83
39177;BME280;24904;52.208;21.192;2023-02-11T17:33:37;101025.77;;;4.60;85.21
39177;BME280;24904;52.208;21.192;2023-02-11T17:38:42;101032.98;;;4.62;85.03
39177;BME280;24904;52.208;21.192;2023-02-11T17:43:47;101040.52;;;4.63;85.15
39177;BME280;24904;52.208;21.192;2023-02-11T17:48:52;101047.77;;;4.67;85.15
39177;BME280;24904;52.208;21.192;2023-02-11T17:54:00;101059.41;;;4.71;85.33
39177;BME280;24904;52.208;21.192;2023-02-11T17:59:07;101062.52;;;4.78;85.15
39177;BME280;24904;52.208;21.192;2023-02-11T18:04:16;101067.39;;;4.81;85.19
39177;BME280;24904;52.208;21.192;2023-02-11T18:09:21;101070.53;;;4.84;85.05
39177;BME280;24904;52.208;21.192;2023-02-11T18:14:26;101077.63;;;4.86;85.23
39177;BME280;24904;52.208;21.192;2023-02-11T18:19:31;101080.19;;;4.89;85.15
39177;BME280;24904;52.208;21.192;2023-02-11T18:24:38;101074.88;;;4.94;85.39
39177;BME280;24904;52.208;21.192;2023-02-11T18:29:45;101085.63;;;5.00;85.39
39177;BME280;24904;52.208;21.192;2023-02-11T18:34:50;101095.06;;;5.04;85.01
39177;BME280;24904;52.208;21.192;2023-02-11T18:39:55;101094.48;;;5.05;85.19
39177;BME280;24904;52.208;21.192;2023-02-11T18:45:00;101096.98;;;5.05;85.08
39177;BME280;24904;52.208;21.192;2023-02-11T18:50:08;101106.42;;;5.09;84.86
39177;BME280;24904;52.208;21.192;2023-02-11T18:55:13;101111.31;;;5.12;84.90
39177;BME280;24904;52.208;21.192;2023-02-11T19:00:20;101126.13;;;5.15;84.51
39177;BME280;24904;52.208;21.192;2023-02-11T19:05:25;101135.06;;;5.18;84.68
39177;BME280;24904;52.208;21.192;2023-02-11T19:10:37;101149.77;;;5.18;84.50
39177;BME280;24904;52.208;21.192;2023-02-11T19:15:43;101156.35;;;5.21;84.34
39177;BME280;24904;52.208;21.192;2023-02-11T19:20:49;101160.89;;;5.25;84.34
39177;BME280;24904;52.208;21.192;2023-02-11T19:25:53;101170.77;;;5.25;84.34
39177;BME280;24904;52.208;21.192;2023-02-11T19:30:58;101178.70;;;5.23;84.35
39177;BME280;24904;52.208;21.192;2023-02-11T19:36:09;101181.97;;;5.23;84.22
39177;BME280;24904;52.208;21.192;2023-02-11T19:41:18;101187.45;;;5.24;84.41
39177;BME280;24904;52.208;21.192;2023-02-11T19:46:27;101194.17;;;5.26;83.87
39177;BME280;24904;52.208;21.192;2023-02-11T19:51:33;101199.02;;;5.26;83.99
39177;BME280;24904;52.208;21.192;2023-02-11T19:56:42;101204.08;;;5.27;83.86
39177;BME280;24904;52.208;21.192;2023-02-11T20:01:53;101219.45;;;5.24;83.80
39177;BME280;24904;52.208;21.192;2023-02-11T20:06:57;101232.42;;;5.27;83.75
39177;BME280;24904;52.208;21.192;2023-02-11T20:12:02;101250.75;;;5.30;83.55
39177;BME280;24904;52.208;21.192;2023-02-11T20:17:14;101259.71;;;5.30;83.21
39177;BME280;24904;52.208;21.192;2023-02-11T20:22:22;101271.38;;;5.27;83.29
39177;BME280;24904;52.208;21.192;2023-02-11T20:27:28;101282.55;;;5.27;83.50
39177;BME280;24904;52.208;21.192;2023-02-11T20:32:39;101287.11;;;5.24;83.30
39177;BME280;24904;52.208;21.192;2023-02-11T20:37:44;101293.92;;;5.25;83.04
39177;BME280;24904;52.208;21.192;2023-02-11T20:42:49;101308.82;;;5.26;83.01
39177;BME280;24904;52.208;21.192;2023-02-11T20:47:55;101318.75;;;5.22;82.92
39177;BME280;24904;52.208;21.192;2023-02-11T20:53:00;101325.20;;;5.23;83.10
39177;BME280;24904;52.208;21.192;2023-02-11T20:58:07;101341.75;;;5.23;83.26
39177;BME280;24904;52.208;21.192;2023-02-11T21:03:12;101360.41;;;5.29;83.00
39177;BME280;24904;52.208;21.192;2023-02-11T21:08:17;101360.36;;;5.34;82.60
39177;BME280;24904;52.208;21.192;2023-02-11T21:13:33;101372.70;;;5.37;82.46
39177;BME280;24904;52.208;21.192;2023-02-11T21:18:38;101387.14;;;5.41;81.77
39177;BME280;24904;52.208;21.192;2023-02-11T21:23:43;101395.04;;;5.41;81.58
39177;BME280;24904;52.208;21.192;2023-02-11T21:28:48;101404.17;;;5.38;80.94
39177;BME280;24904;52.208;21.192;2023-02-11T21:33:56;101406.45;;;5.34;79.61
39177;BME280;24904;52.208;21.192;2023-02-11T21:39:02;101422.85;;;5.32;78.88
39177;BME280;24904;52.208;21.192;2023-02-11T21:44:08;101443.77;;;5.28;77.93
39177;BME280;24904;52.208;21.192;2023-02-11T21:49:13;101456.17;;;5.23;77.31
39177;BME280;24904;52.208;21.192;2023-02-11T21:54:19;101470.52;;;5.15;76.92
39177;BME280;24904;52.208;21.192;2023-02-11T21:59:26;101485.45;;;5.08;76.77
39177;BME280;24904;52.208;21.192;2023-02-11T22:04:31;101500.59;;;5.03;76.73
39177;BME280;24904;52.208;21.192;2023-02-11T22:09:45;101492.64;;;4.99;76.14
39177;BME280;24904;52.208;21.192;2023-02-11T22:14:50;101503.63;;;4.94;76.12
39177;BME280;24904;52.208;21.192;2023-02-11T22:19:55;101527.89;;;4.91;75.68
39177;BME280;24904;52.208;21.192;2023-02-11T22:25:00;101544.52;;;4.81;75.27
39177;BME280;24904;52.208;21.192;2023-02-11T22:30:07;101562.50;;;4.70;74.44
39177;BME280;24904;52.208;21.192;2023-02-11T22:35:12;101575.22;;;4.61;74.08
39177;BME280;24904;52.208;21.192;2023-02-11T22:40:18;101589.65;;;4.54;73.85
39177;BME280;24904;52.208;21.192;2023-02-11T22:45:23;101607.25;;;4.42;73.13
39177;BME280;24904;52.208;21.192;2023-02-11T22:50:28;101621.73;;;4.30;72.70
39177;BME280;24904;52.208;21.192;2023-02-11T22:55:36;101631.89;;;4.17;72.21
39177;BME280;24904;52.208;21.192;2023-02-11T23:00:42;101633.70;;;4.04;72.31
39177;BME280;24904;52.208;21.192;2023-02-11T23:05:46;101651.66;;;3.95;72.08
39177;BME280;24904;52.208;21.192;2023-02-11T23:10:51;101666.08;;;3.91;72.53
39177;BME280;24904;52.208;21.192;2023-02-11T23:15:56;101673.38;;;3.83;71.69
39177;BME280;24904;52.208;21.192;2023-02-11T23:21:05;101674.02;;;3.74;72.18
39177;BME280;24904;52.208;21.192;2023-02-11T23:26:12;101687.05;;;3.69;71.69
39177;BME280;24904;52.208;21.192;2023-02-11T23:31:21;101690.00;;;3.64;71.56
39177;BME280;24904;52.208;21.192;2023-02-11T23:36:26;101695.84;;;3.56;71.61
39177;BME280;24904;52.208;21.192;2023-02-11T23:41:30;101705.63;;;3.52;71.10
39177;BME280;24904;52.208;21.192;2023-02-11T23:46:33;101720.27;;;3.49;71.52
39177;BME280;24904;52.208;21.192;2023-02-11T23:51:36;101735.52;;;3.43;71.11
39177;BME280;24904;52.208;21.192;2023-02-11T23:56:39;101748.59;;;3.28;70.70
